Time;durP1;ratioP1;P1;durP2;ratioP2;P2;SDS_P1;SDS_P2;PMS_P1;PMS_P2;Temp;Humidity;BMP_temperature;BMP_pressure;BME280_temperature;BME280_humidity;BME280_pressure;Samples;Min_cycle;Max_cycle;Signal;HPM_P1;HPM_P2
2021/12/01 00:00:41;;;;;;;0.20;0.20;;;;;;;;;;5010950;28;20379;-65
2021/12/01 00:03:09;;;;;;;0.20;0.20;;;;;;;;;;5020114;28;20523;-65
2021/12/01 00:05:38;;;;;;;0.20;0.20;;;;;;;;;;5018572;28;20049;-65
2021/12/01 00:08:07;;;;;;;0.22;0.20;;;;;;;;;;5020550;28;20076;-65
2021/12/01 00:10:35;;;;;;;0.15;0.15;;;;;;;;;;5014761;28;20056;-65
2021/12/01 00:13:06;;;;;;;0.20;0.20;;;;;;;;;;5017917;28;20049;-65
2021/12/01 00:15:35;;;;;;;0.55;0.20;;;;;;;;;;5024762;28;20077;-65
2021/12/01 00:18:03;;;;;;;0.20;0.20;;;;;;;;;;5015385;28;20058;-65
2021/12/01 00:20:32;;;;;;;0.13;0.13;;;;;;;;;;5016262;28;20172;-65
2021/12/01 00:23:00;;;;;;;0.10;0.10;;;;;;;;;;5017520;28;20087;-65
2021/12/01 00:25:29;;;;;;;0.22;0.20;;;;;;;;;;5015957;28;20056;-65
2021/12/01 00:27:58;;;;;;;0.10;0.10;;;;;;;;;;5020133;28;20474;-65
2021/12/01 00:30:28;;;;;;;0.75;0.40;;;;;;;;;;5018827;28;20132;-65
2021/12/01 00:32:57;;;;;;;0.20;0.20;;;;;;;;;;5012582;28;20054;-65
2021/12/01 00:35:27;;;;;;;1.90;0.20;;;;;;;;;;5013406;28;20132;-65
2021/12/01 00:37:56;;;;;;;0.32;0.30;;;;;;;;;;5026006;28;20501;-65
2021/12/01 00:40:26;;;;;;;0.30;0.20;;;;;;;;;;5016177;28;20140;-65
2021/12/01 00:42:54;;;;;;;0.10;0.10;;;;;;;;;;5028373;28;20045;-65
2021/12/01 00:45:25;;;;;;;0.10;0.10;;;;;;;;;;5012168;28;20050;-65
2021/12/01 00:47:55;;;;;;;0.20;0.20;;;;;;;;;;5026190;28;20506;-65
2021/12/01 00:50:25;;;;;;;0.40;0.20;;;;;;;;;;5013799;28;20477;-65
2021/12/01 00:52:54;;;;;;;0.17;0.17;;;;;;;;;;5013276;28;20467;-65
2021/12/01 00:55:23;;;;;;;0.13;0.13;;;;;;;;;;5014014;28;20061;-65
2021/12/01 00:57:52;;;;;;;0.10;0.10;;;;;;;;;;5012885;28;20132;-65
2021/12/01 01:00:22;;;;;;;0.10;0.10;;;;;;;;;;5014761;28;20125;-65
2021/12/01 01:02:51;;;;;;;0.20;0.20;;;;;;;;;;5019717;28;20056;-64
2021/12/01 01:05:21;;;;;;;0.68;0.15;;;;;;;;;;5002933;28;20081;-64
2021/12/01 01:07:50;;;;;;;2.90;0.20;;;;;;;;;;5013136;28;20045;-65
2021/12/01 01:10:34;;;;;;;0.22;0.20;;;;;;;;;;5015162;28;20049;-65
2021/12/01 01:18:47;;;;;;;0.57;0.40;;;;;;;;;;5002413;28;20057;-64
2021/12/01 01:21:18;;;;;;;0.10;0.10;;;;;;;;;;5023070;28;20049;-65
2021/12/01 01:23:46;;;;;;;1.08;0.20;;;;;;;;;;5011800;28;20046;-64
2021/12/01 01:26:16;;;;;;;0.10;0.10;;;;;;;;;;5024025;28;20038;-65
2021/12/01 01:28:57;;;;;;;0.10;0.10;;;;;;;;;;2055132;28;10024277;-65
2021/12/01 01:31:25;;;;;;;0.20;0.20;;;;;;;;;;3623724;28;10001638;-64
2021/12/01 01:33:54;;;;;;;0.20;0.20;;;;;;;;;;5012758;28;20133;-64
2021/12/01 01:36:23;;;;;;;0.10;0.10;;;;;;;;;;5012660;28;20065;-64
2021/12/01 01:38:52;;;;;;;0.28;0.20;;;;;;;;;;5012808;28;20050;-65
2021/12/01 01:41:21;;;;;;;0.10;0.10;;;;;;;;;;5012216;28;20434;-65
2021/12/01 01:43:50;;;;;;;0.28;0.10;;;;;;;;;;5015644;28;20042;-65
2021/12/01 01:46:19;;;;;;;0.17;0.13;;;;;;;;;;5015222;28;20070;-65
2021/12/01 01:48:52;;;;;;;0.10;0.10;;;;;;;;;;5016582;28;20045;-65
2021/12/01 01:51:21;;;;;;;0.22;0.20;;;;;;;;;;5024045;28;20052;-64
2021/12/01 01:53:53;;;;;;;0.20;0.20;;;;;;;;;;5017635;28;20041;-65
2021/12/01 01:56:22;;;;;;;0.20;0.20;;;;;;;;;;5019456;28;20053;-64
2021/12/01 01:58:51;;;;;;;0.52;0.52;;;;;;;;;;5017800;28;20051;-65
2021/12/01 02:01:38;;;;;;;0.30;0.30;;;;;;;;;;5027230;28;20045;-64
2021/12/01 02:04:08;;;;;;;0.20;0.20;;;;;;;;;;5017273;28;20139;-64
2021/12/01 02:06:37;;;;;;;0.10;0.10;;;;;;;;;;5014124;28;20057;-65
2021/12/01 02:09:07;;;;;;;0.20;0.20;;;;;;;;;;5015692;28;20247;-64
2021/12/01 02:11:36;;;;;;;0.20;0.20;;;;;;;;;;5012954;28;20057;-64
2021/12/01 02:14:05;;;;;;;0.20;0.20;;;;;;;;;;5017935;28;20491;-65
2021/12/01 02:16:33;;;;;;;0.10;0.10;;;;;;;;;;5012255;28;20050;-65
2021/12/01 02:19:02;;;;;;;0.20;0.20;;;;;;;;;;5019219;28;20077;-65
2021/12/01 02:21:32;;;;;;;0.20;0.20;;;;;;;;;;5026796;28;20059;-65
2021/12/01 02:24:02;;;;;;;0.13;0.13;;;;;;;;;;5018409;28;20077;-65
2021/12/01 02:26:32;;;;;;;1.45;0.30;;;;;;;;;;5014523;28;20045;-64
2021/12/01 02:29:02;;;;;;;0.10;0.10;;;;;;;;;;5017290;28;20049;-65
2021/12/01 02:31:34;;;;;;;0.13;0.13;;;;;;;;;;5026038;28;20055;-65
2021/12/01 02:34:02;;;;;;;0.10;0.10;;;;;;;;;;5016503;28;20088;-64
2021/12/01 02:36:32;;;;;;;0.20;0.20;;;;;;;;;;5010443;28;20533;-64
2021/12/01 02:39:00;;;;;;;0.30;0.30;;;;;;;;;;5011639;28;20053;-65
2021/12/01 02:41:29;;;;;;;0.32;0.32;;;;;;;;;;5018310;28;20873;-65
2021/12/01 02:43:59;;;;;;;0.20;0.20;;;;;;;;;;5009588;28;20046;-65
2021/12/01 02:46:27;;;;;;;0.57;0.20;;;;;;;;;;5014430;28;20060;-65
2021/12/01 02:48:56;;;;;;;0.50;0.20;;;;;;;;;;5009355;28;20046;-65
2021/12/01 02:51:27;;;;;;;0.15;0.15;;;;;;;;;;5024291;28;20137;-65
2021/12/01 02:53:57;;;;;;;0.10;0.10;;;;;;;;;;5009196;28;20053;-65
2021/12/01 02:56:25;;;;;;;0.10;0.10;;;;;;;;;;5010386;28;20325;-65
2021/12/01 02:58:54;;;;;;;0.45;0.20;;;;;;;;;;5010253;28;20144;-65
2021/12/01 03:01:23;;;;;;;0.15;0.15;;;;;;;;;;5020137;28;20132;-65
2021/12/01 03:03:53;;;;;;;0.22;0.22;;;;;;;;;;5012009;28;20042;-65
2021/12/01 03:06:25;;;;;;;1.23;0.20;;;;;;;;;;5009171;28;20390;-65
2021/12/01 03:08:53;;;;;;;0.10;0.10;;;;;;;;;;5021183;28;20157;-64
2021/12/01 03:11:23;;;;;;;0.20;0.20;;;;;;;;;;5011007;28;20461;-65
2021/12/01 03:13:51;;;;;;;0.20;0.20;;;;;;;;;;5008963;28;20425;-65
2021/12/01 03:16:20;;;;;;;0.10;0.10;;;;;;;;;;5010469;28;20453;-65
2021/12/01 03:18:48;;;;;;;0.68;0.30;;;;;;;;;;5018477;28;20096;-65
2021/12/01 03:21:17;;;;;;;0.20;0.20;;;;;;;;;;5010597;28;20141;-65
2021/12/01 03:23:46;;;;;;;1.40;0.28;;;;;;;;;;5009392;28;20053;-65
2021/12/01 03:26:14;;;;;;;1.95;0.22;;;;;;;;;;5008088;28;20046;-65
2021/12/01 03:28:44;;;;;;;0.10;0.10;;;;;;;;;;5014498;28;20045;-65
2021/12/01 03:31:13;;;;;;;0.30;0.30;;;;;;;;;;5019675;28;20065;-65
2021/12/01 03:33:41;;;;;;;0.10;0.10;;;;;;;;;;5010148;28;20049;-65
2021/12/01 03:36:10;;;;;;;0.10;0.10;;;;;;;;;;5016489;28;20125;-65
2021/12/01 03:38:38;;;;;;;0.30;0.30;;;;;;;;;;5015525;28;20049;-64
2021/12/01 03:41:07;;;;;;;0.38;0.20;;;;;;;;;;5009884;28;20467;-65
2021/12/01 03:43:35;;;;;;;0.20;0.20;;;;;;;;;;5018654;28;20394;-65
2021/12/01 03:46:05;;;;;;;0.25;0.20;;;;;;;;;;5010768;28;20054;-65
2021/12/01 03:48:33;;;;;;;0.40;0.30;;;;;;;;;;5006970;28;20050;-65
2021/12/01 03:51:01;;;;;;;0.63;0.30;;;;;;;;;;5007454;28;20413;-65
2021/12/01 03:53:30;;;;;;;0.20;0.20;;;;;;;;;;5022884;28;20501;-65
2021/12/01 03:55:59;;;;;;;0.47;0.20;;;;;;;;;;5020414;28;20051;-65
2021/12/01 03:58:27;;;;;;;0.10;0.10;;;;;;;;;;5024111;28;20168;-65
2021/12/01 04:00:55;;;;;;;1.48;0.20;;;;;;;;;;5012146;28;20508;-65
2021/12/01 04:03:25;;;;;;;0.28;0.22;;;;;;;;;;5017027;28;20136;-65
2021/12/01 04:05:54;;;;;;;0.25;0.25;;;;;;;;;;5019102;28;20056;-65
2021/12/01 04:08:22;;;;;;;0.52;0.32;;;;;;;;;;5019278;28;20073;-65
2021/12/01 04:10:51;;;;;;;0.20;0.20;;;;;;;;;;5019451;28;20049;-65
2021/12/01 04:13:19;;;;;;;0.52;0.40;;;;;;;;;;5014181;28;20053;-65
2021/12/01 04:15:48;;;;;;;0.82;0.57;;;;;;;;;;5017319;28;20136;-65
2021/12/01 04:18:16;;;;;;;0.30;0.30;;;;;;;;;;5014034;28;20054;-65
2021/12/01 04:20:46;;;;;;;0.30;0.30;;;;;;;;;;5013272;28;20060;-65
2021/12/01 04:23:14;;;;;;;0.30;0.30;;;;;;;;;;5020012;28;20136;-65
2021/12/01 04:25:43;;;;;;;0.28;0.20;;;;;;;;;;5013303;28;20136;-65
2021/12/01 04:28:12;;;;;;;0.22;0.20;;;;;;;;;;5012940;28;20054;-65
2021/12/01 04:30:40;;;;;;;0.30;0.30;;;;;;;;;;5012712;28;20060;-65
2021/12/01 04:33:08;;;;;;;0.50;0.40;;;;;;;;;;5014396;28;20046;-65
2021/12/01 04:35:37;;;;;;;0.20;0.20;;;;;;;;;;5012990;28;20608;-65
2021/12/01 04:38:07;;;;;;;0.47;0.40;;;;;;;;;;5013560;28;20597;-65
2021/12/01 04:40:36;;;;;;;0.75;0.20;;;;;;;;;;5011642;28;20058;-65
2021/12/01 04:43:04;;;;;;;0.20;0.20;;;;;;;;;;5012923;28;20064;-65
2021/12/01 04:45:36;;;;;;;0.60;0.32;;;;;;;;;;5012162;28;20050;-65
2021/12/01 04:48:05;;;;;;;0.40;0.20;;;;;;;;;;5008647;28;20056;-65
2021/12/01 04:50:33;;;;;;;3.42;0.30;;;;;;;;;;5012201;28;20086;-65
2021/12/01 04:53:01;;;;;;;0.75;0.35;;;;;;;;;;5009465;28;20408;-65
2021/12/01 04:55:32;;;;;;;0.68;0.45;;;;;;;;;;5012791;28;20486;-65
2021/12/01 04:58:00;;;;;;;0.38;0.38;;;;;;;;;;5017117;28;20053;-65
2021/12/01 05:00:29;;;;;;;3.22;0.40;;;;;;;;;;5014314;28;20072;-65
2021/12/01 05:02:58;;;;;;;0.60;0.43;;;;;;;;;;5019000;28;20069;-65
2021/12/01 05:05:46;;;;;;;0.38;0.30;;;;;;;;;;5012412;28;20049;-65
2021/12/01 05:08:14;;;;;;;0.52;0.30;;;;;;;;;;5014158;28;20044;-65
2021/12/01 05:10:44;;;;;;;2.92;0.45;;;;;;;;;;5012128;28;20490;-65
2021/12/01 05:13:12;;;;;;;0.35;0.30;;;;;;;;;;5014984;28;20132;-65
2021/12/01 05:15:41;;;;;;;0.93;0.45;;;;;;;;;;5024215;28;20413;-65
2021/12/01 05:18:10;;;;;;;0.73;0.47;;;;;;;;;;5011824;28;20087;-65
2021/12/01 05:20:39;;;;;;;0.20;0.20;;;;;;;;;;5017926;28;20136;-65
2021/12/01 05:23:07;;;;;;;1.00;0.50;;;;;;;;;;5012160;28;20390;-65
2021/12/01 05:25:35;;;;;;;1.58;0.30;;;;;;;;;;5014746;28;20049;-65
2021/12/01 05:28:06;;;;;;;0.77;0.47;;;;;;;;;;5022407;28;20577;-65
2021/12/01 05:30:35;;;;;;;0.28;0.28;;;;;;;;;;5013123;28;20058;-65
2021/12/01 05:33:07;;;;;;;0.50;0.47;;;;;;;;;;5008526;28;20383;-65
2021/12/01 05:35:39;;;;;;;1.55;0.43;;;;;;;;;;5014236;28;20045;-65
2021/12/01 05:38:08;;;;;;;0.45;0.45;;;;;;;;;;5016074;28;20081;-65
2021/12/01 05:40:37;;;;;;;0.65;0.40;;;;;;;;;;5030993;28;20107;-65
2021/12/01 05:43:07;;;;;;;2.33;0.47;;;;;;;;;;5020728;28;20165;-65
2021/12/01 05:45:36;;;;;;;0.30;0.30;;;;;;;;;;5019885;28;20095;-65
2021/12/01 05:48:05;;;;;;;1.10;0.50;;;;;;;;;;5013429;28;20130;-65
2021/12/01 05:50:33;;;;;;;0.38;0.30;;;;;;;;;;5000298;28;20045;-65
2021/12/01 05:53:02;;;;;;;1.35;0.50;;;;;;;;;;5007584;28;20058;-65
2021/12/01 05:55:30;;;;;;;0.80;0.80;;;;;;;;;;5015961;28;20140;-65
2021/12/01 05:57:59;;;;;;;0.30;0.30;;;;;;;;;;5010917;28;20491;-65
2021/12/01 06:00:29;;;;;;;0.30;0.30;;;;;;;;;;5004285;28;20160;-65
2021/12/01 06:02:57;;;;;;;1.73;0.90;;;;;;;;;;5001759;28;20046;-65
2021/12/01 06:05:27;;;;;;;0.40;0.40;;;;;;;;;;5008404;28;20046;-65
2021/12/01 06:07:56;;;;;;;0.40;0.40;;;;;;;;;;5013654;28;20828;-65
2021/12/01 06:10:24;;;;;;;2.05;0.40;;;;;;;;;;5017368;28;20041;-65
2021/12/01 06:12:54;;;;;;;0.20;0.20;;;;;;;;;;5012587;28;20080;-65
2021/12/01 06:15:23;;;;;;;0.47;0.40;;;;;;;;;;5013499;28;20042;-65
2021/12/01 06:17:55;;;;;;;0.70;0.38;;;;;;;;;;5005764;28;20069;-65
2021/12/01 06:20:24;;;;;;;0.70;0.50;;;;;;;;;;5013930;28;20502;-65
2021/12/01 06:22:53;;;;;;;0.40;0.40;;;;;;;;;;5012669;28;20058;-66
2021/12/01 06:25:21;;;;;;;5.80;0.95;;;;;;;;;;5008026;28;20081;-66
2021/12/01 06:27:54;;;;;;;1.98;0.63;;;;;;;;;;5022358;28;20477;-65
2021/12/01 06:30:23;;;;;;;0.63;0.45;;;;;;;;;;5009923;28;20058;-66
2021/12/01 06:32:52;;;;;;;4.88;0.60;;;;;;;;;;5011883;28;20555;-66
2021/12/01 06:35:22;;;;;;;0.88;0.40;;;;;;;;;;5007630;28;20078;-66
2021/12/01 06:37:53;;;;;;;0.85;0.57;;;;;;;;;;5023261;28;20049;-66
2021/12/01 06:40:23;;;;;;;2.40;0.52;;;;;;;;;;5023553;28;20056;-65
2021/12/01 06:42:52;;;;;;;1.90;0.55;;;;;;;;;;5006845;28;20053;-65
2021/12/01 06:45:21;;;;;;;1.55;0.68;;;;;;;;;;5009122;28;20058;-65
2021/12/01 06:47:51;;;;;;;3.17;0.85;;;;;;;;;;5005623;28;20219;-65
2021/12/01 06:50:21;;;;;;;1.08;0.50;;;;;;;;;;5007669;28;20050;-65
2021/12/01 06:52:50;;;;;;;4.30;0.80;;;;;;;;;;5007089;28;20129;-65
2021/12/01 06:55:20;;;;;;;1.55;0.50;;;;;;;;;;5006085;28;20465;-65
2021/12/01 06:57:50;;;;;;;0.43;0.40;;;;;;;;;;5011993;28;20052;-65
2021/12/01 07:00:20;;;;;;;0.80;0.60;;;;;;;;;;5010071;28;20054;-65
2021/12/01 07:02:49;;;;;;;2.30;0.40;;;;;;;;;;5008652;28;20116;-65
2021/12/01 07:05:18;;;;;;;1.83;0.50;;;;;;;;;;5009653;28;20050;-65
2021/12/01 07:07:48;;;;;;;1.92;0.65;;;;;;;;;;5014849;28;20049;-65
2021/12/01 07:10:18;;;;;;;2.00;0.65;;;;;;;;;;5011685;28;20060;-65
2021/12/01 07:12:46;;;;;;;0.40;0.40;;;;;;;;;;5009207;28;20049;-65
2021/12/01 07:15:19;;;;;;;5.20;0.60;;;;;;;;;;5017759;28;20505;-65
2021/12/01 07:17:48;;;;;;;2.25;0.60;;;;;;;;;;5004339;28;20049;-65
2021/12/01 07:20:17;;;;;;;0.98;0.55;;;;;;;;;;5025496;28;20049;-65
2021/12/01 07:22:45;;;;;;;3.00;0.50;;;;;;;;;;5010876;28;20056;-65
2021/12/01 07:25:15;;;;;;;0.80;0.50;;;;;;;;;;5000542;28;20126;-65
2021/12/01 07:27:44;;;;;;;1.70;0.55;;;;;;;;;;5009128;28;20104;-65
2021/12/01 07:30:12;;;;;;;0.93;0.50;;;;;;;;;;5010559;28;20100;-65
2021/12/01 07:32:41;;;;;;;0.45;0.45;;;;;;;;;;5011639;28;20074;-65
2021/12/01 07:35:10;;;;;;;0.40;0.38;;;;;;;;;;5009673;28;20050;-65
2021/12/01 07:37:39;;;;;;;1.23;0.60;;;;;;;;;;5012602;28;20056;-66
2021/12/01 07:40:07;;;;;;;0.63;0.52;;;;;;;;;;5009512;28;20130;-66
2021/12/01 07:42:37;;;;;;;0.60;0.40;;;;;;;;;;5001097;28;20686;-66
2021/12/01 07:45:07;;;;;;;0.45;0.40;;;;;;;;;;5002690;28;20160;-66
2021/12/01 07:47:35;;;;;;;1.38;0.45;;;;;;;;;;5012902;28;20058;-66
2021/12/01 07:50:04;;;;;;;3.83;0.57;;;;;;;;;;5008663;28;20057;-66
2021/12/01 07:52:33;;;;;;;1.65;0.57;;;;;;;;;;5022574;28;20049;-66
2021/12/01 07:55:01;;;;;;;4.22;0.60;;;;;;;;;;4996657;28;20050;-66
2021/12/01 07:57:30;;;;;;;0.68;0.60;;;;;;;;;;5017281;28;20042;-65
2021/12/01 08:00:00;;;;;;;0.32;0.32;;;;;;;;;;5003191;28;20050;-66
2021/12/01 08:02:29;;;;;;;2.80;0.50;;;;;;;;;;5008228;28;20476;-66
2021/12/01 08:04:58;;;;;;;0.38;0.38;;;;;;;;;;5008357;28;20100;-66
2021/12/01 08:07:28;;;;;;;0.55;0.47;;;;;;;;;;5021054;28;20045;-65
2021/12/01 08:09:57;;;;;;;0.57;0.50;;;;;;;;;;5014149;28;20104;-66
2021/12/01 08:12:26;;;;;;;2.55;0.50;;;;;;;;;;5010664;28;20049;-65
2021/12/01 08:14:55;;;;;;;2.28;0.50;;;;;;;;;;4999457;28;20052;-65
2021/12/01 08:17:25;;;;;;;1.27;0.60;;;;;;;;;;5020923;28;20085;-65
2021/12/01 08:19:53;;;;;;;0.40;0.30;;;;;;;;;;5008933;28;20046;-65
2021/12/01 08:22:22;;;;;;;0.35;0.35;;;;;;;;;;5010256;28;20077;-66
2021/12/01 08:24:52;;;;;;;2.30;0.40;;;;;;;;;;5009011;28;20045;-65
2021/12/01 08:27:21;;;;;;;0.40;0.40;;;;;;;;;;5012372;28;20116;-65
2021/12/01 08:29:50;;;;;;;0.85;0.43;;;;;;;;;;5007297;28;20057;-65
2021/12/01 08:32:19;;;;;;;0.95;0.40;;;;;;;;;;5013238;28;20065;-65
2021/12/01 08:34:51;;;;;;;1.60;0.52;;;;;;;;;;5021157;28;20099;-65
2021/12/01 08:37:21;;;;;;;0.57;0.50;;;;;;;;;;5012377;28;20107;-65
2021/12/01 08:39:51;;;;;;;5.05;0.70;;;;;;;;;;5023475;28;20054;-65
2021/12/01 08:42:20;;;;;;;0.90;0.40;;;;;;;;;;5014544;28;20050;-65
2021/12/01 08:44:49;;;;;;;1.35;0.52;;;;;;;;;;5010524;28;20073;-65
2021/12/01 08:47:19;;;;;;;0.77;0.50;;;;;;;;;;5011941;28;20049;-65
2021/12/01 08:49:53;;;;;;;2.33;0.77;;;;;;;;;;5019865;28;20042;-65
2021/12/01 08:52:23;;;;;;;0.95;0.55;;;;;;;;;;5015256;28;20532;-65
2021/12/01 08:54:51;;;;;;;3.90;0.50;;;;;;;;;;5015398;28;20489;-65
2021/12/01 08:57:20;;;;;;;0.80;0.40;;;;;;;;;;5010794;28;20464;-65
2021/12/01 08:59:50;;;;;;;1.48;0.50;;;;;;;;;;5011802;28;20049;-65
2021/12/01 09:02:19;;;;;;;0.98;0.65;;;;;;;;;;5027468;28;20132;-65
2021/12/01 09:04:50;;;;;;;1.55;0.45;;;;;;;;;;5004398;28;20057;-66
2021/12/01 09:07:20;;;;;;;0.47;0.40;;;;;;;;;;5011513;28;20050;-65
2021/12/01 09:09:49;;;;;;;0.40;0.40;;;;;;;;;;5009563;28;20045;-65
2021/12/01 09:12:22;;;;;;;0.68;0.45;;;;;;;;;;5007188;28;20046;-65
2021/12/01 09:14:52;;;;;;;1.95;0.70;;;;;;;;;;5002266;28;20442;-65
2021/12/01 09:17:21;;;;;;;1.15;0.60;;;;;;;;;;5010569;28;20053;-65
2021/12/01 09:19:50;;;;;;;0.93;0.60;;;;;;;;;;5003121;28;20139;-65
2021/12/01 09:22:21;;;;;;;1.50;0.50;;;;;;;;;;5028948;28;20080;-65
2021/12/01 09:24:49;;;;;;;1.77;0.80;;;;;;;;;;5018506;28;20650;-65
2021/12/01 09:27:18;;;;;;;1.33;0.65;;;;;;;;;;5009339;28;20517;-65
2021/12/01 09:29:47;;;;;;;0.90;0.50;;;;;;;;;;5014593;28;20050;-65
2021/12/01 09:32:16;;;;;;;1.45;0.45;;;;;;;;;;5015272;28;20089;-65
2021/12/01 09:34:45;;;;;;;0.60;0.30;;;;;;;;;;5016295;28;20428;-65
2021/12/01 09:37:14;;;;;;;0.47;0.47;;;;;;;;;;5010094;28;20053;-65
2021/12/01 09:39:45;;;;;;;0.47;0.40;;;;;;;;;;5022831;28;20085;-65
2021/12/01 09:42:13;;;;;;;0.80;0.60;;;;;;;;;;5020968;28;20092;-66
2021/12/01 09:44:42;;;;;;;0.47;0.47;;;;;;;;;;5026811;28;20052;-65
2021/12/01 09:47:11;;;;;;;0.40;0.40;;;;;;;;;;5023412;28;20049;-66
2021/12/01 09:49:40;;;;;;;1.48;0.70;;;;;;;;;;5005449;28;20795;-65
2021/12/01 09:52:10;;;;;;;2.10;0.60;;;;;;;;;;5022578;28;20056;-65
2021/12/01 09:54:39;;;;;;;1.95;0.63;;;;;;;;;;5018262;28;20384;-65
2021/12/01 09:57:13;;;;;;;0.30;0.30;;;;;;;;;;5010327;28;20478;-65
2021/12/01 09:59:43;;;;;;;0.43;0.43;;;;;;;;;;5015237;28;20049;-65
2021/12/01 10:02:13;;;;;;;1.08;0.50;;;;;;;;;;5016885;28;20049;-65
2021/12/01 10:04:43;;;;;;;0.70;0.52;;;;;;;;;;5002842;28;20077;-65
2021/12/01 10:07:17;;;;;;;0.50;0.30;;;;;;;;;;5018835;28;20409;-65
2021/12/01 10:09:48;;;;;;;1.33;0.50;;;;;;;;;;4998751;28;20136;-65
2021/12/01 10:12:18;;;;;;;0.70;0.50;;;;;;;;;;5024148;28;20050;-65
2021/12/01 10:14:48;;;;;;;1.05;0.40;;;;;;;;;;5018618;28;20037;-65
2021/12/01 10:17:18;;;;;;;0.50;0.50;;;;;;;;;;5005009;28;20056;-65
2021/12/01 10:19:47;;;;;;;1.98;0.50;;;;;;;;;;5009832;28;20049;-65
2021/12/01 10:22:16;;;;;;;2.45;0.43;;;;;;;;;;5013779;28;20050;-65
2021/12/01 10:24:46;;;;;;;0.68;0.38;;;;;;;;;;5011256;28;20052;-65
2021/12/01 10:27:15;;;;;;;1.27;0.35;;;;;;;;;;5011870;28;20483;-65
2021/12/01 10:29:48;;;;;;;0.70;0.50;;;;;;;;;;5008988;28;20483;-65
2021/12/01 10:32:18;;;;;;;0.82;0.60;;;;;;;;;;5012306;28;20501;-65
2021/12/01 10:34:50;;;;;;;0.40;0.40;;;;;;;;;;5002846;28;20136;-65
2021/12/01 10:37:23;;;;;;;5.70;0.50;;;;;;;;;;5009363;28;20046;-65
2021/12/01 10:40:04;;;;;;;1.33;0.30;;;;;;;;;;5006071;28;20054;-65
2021/12/01 10:42:33;;;;;;;0.40;0.40;;;;;;;;;;5006340;28;20084;-65
2021/12/01 10:45:05;;;;;;;1.42;0.60;;;;;;;;;;5009604;28;20060;-65
2021/12/01 10:47:40;;;;;;;0.57;0.35;;;;;;;;;;5009097;28;20057;-65
2021/12/01 10:50:09;;;;;;;0.38;0.30;;;;;;;;;;5004350;28;20046;-65
2021/12/01 10:52:39;;;;;;;0.50;0.38;;;;;;;;;;5007744;28;20061;-66
2021/12/01 10:55:09;;;;;;;0.40;0.25;;;;;;;;;;5014093;28;20144;-65
2021/12/01 10:57:40;;;;;;;1.50;0.50;;;;;;;;;;5010347;28;20041;-65
2021/12/01 11:00:17;;;;;;;1.35;0.50;;;;;;;;;;5009300;28;20073;-65
2021/12/01 11:02:46;;;;;;;0.35;0.20;;;;;;;;;;5003170;28;20077;-65
2021/12/01 11:05:33;;;;;;;0.63;0.38;;;;;;;;;;5018676;28;20553;-65
2021/12/01 11:08:10;;;;;;;0.30;0.28;;;;;;;;;;5016373;28;20494;-65
2021/12/01 11:10:39;;;;;;;0.28;0.28;;;;;;;;;;5010911;28;20046;-65
2021/12/01 11:13:08;;;;;;;0.52;0.30;;;;;;;;;;5015314;28;20082;-65
2021/12/01 11:15:39;;;;;;;0.77;0.40;;;;;;;;;;5014034;28;20397;-65
2021/12/01 11:18:29;;;;;;;0.88;0.40;;;;;;;;;;5004428;28;20050;-65
2021/12/01 11:21:08;;;;;;;0.32;0.32;;;;;;;;;;5010779;28;20058;-65
2021/12/01 11:23:38;;;;;;;0.40;0.20;;;;;;;;;;5011526;28;20041;-65
2021/12/01 11:26:08;;;;;;;1.42;0.35;;;;;;;;;;5015772;28;20095;-65
2021/12/01 11:28:37;;;;;;;0.73;0.35;;;;;;;;;;5006974;28;20053;-65
2021/12/01 11:31:09;;;;;;;0.50;0.30;;;;;;;;;;5005279;28;20096;-65
2021/12/01 11:33:43;;;;;;;0.32;0.20;;;;;;;;;;5009123;28;20096;-65
2021/12/01 11:36:12;;;;;;;0.88;0.22;;;;;;;;;;5009378;28;20046;-65
2021/12/01 11:38:42;;;;;;;0.77;0.40;;;;;;;;;;5011745;28;20049;-65
2021/12/01 11:41:10;;;;;;;2.38;0.30;;;;;;;;;;5014059;28;20089;-65
2021/12/01 11:43:39;;;;;;;0.65;0.50;;;;;;;;;;5004246;28;20109;-65
2021/12/01 11:46:11;;;;;;;0.30;0.20;;;;;;;;;;5007127;28;20046;-65
2021/12/01 11:48:41;;;;;;;0.75;0.25;;;;;;;;;;5007613;28;20042;-65
2021/12/01 11:51:12;;;;;;;0.70;0.40;;;;;;;;;;5007705;28;20065;-65
2021/12/01 11:53:42;;;;;;;0.38;0.20;;;;;;;;;;5005706;28;20546;-65
2021/12/01 11:56:16;;;;;;;0.50;0.30;;;;;;;;;;5005102;28;20329;-65
2021/12/01 11:58:51;;;;;;;0.50;0.40;;;;;;;;;;5003166;28;20058;-65
2021/12/01 12:01:44;;;;;;;0.77;0.45;;;;;;;;;;5005373;28;20046;-65
2021/12/01 12:04:26;;;;;;;0.70;0.40;;;;;;;;;;5013869;28;20057;-65
2021/12/01 12:06:59;;;;;;;0.30;0.30;;;;;;;;;;5006862;28;20473;-65
2021/12/01 12:10:05;;;;;;;0.25;0.25;;;;;;;;;;5007774;28;20041;-65
2021/12/01 12:13:00;;;;;;;0.88;0.30;;;;;;;;;;5002236;28;20058;-65
2021/12/01 12:15:40;;;;;;;3.20;0.40;;;;;;;;;;4988680;28;20438;-65
2021/12/01 12:18:12;;;;;;;0.73;0.30;;;;;;;;;;5008533;28;20481;-66
2021/12/01 12:20:51;;;;;;;1.35;0.40;;;;;;;;;;5007845;28;20100;-65
2021/12/01 12:23:22;;;;;;;0.70;0.43;;;;;;;;;;5008169;28;20064;-65
2021/12/01 12:25:53;;;;;;;0.40;0.30;;;;;;;;;;5014938;28;20049;-65
2021/12/01 12:28:38;;;;;;;0.43;0.30;;;;;;;;;;5023098;28;20448;-65
2021/12/01 12:31:08;;;;;;;0.22;0.22;;;;;;;;;;5010719;28;20061;-65
2021/12/01 12:33:39;;;;;;;1.23;0.28;;;;;;;;;;5008758;28;20161;-65
2021/12/01 12:36:09;;;;;;;0.30;0.30;;;;;;;;;;5012571;28;20081;-65
2021/12/01 12:38:38;;;;;;;0.98;0.40;;;;;;;;;;5020088;28;20073;-65
2021/12/01 12:41:10;;;;;;;1.05;0.40;;;;;;;;;;5013749;28;20045;-65
2021/12/01 12:43:41;;;;;;;0.80;0.50;;;;;;;;;;5005037;28;20401;-66
2021/12/01 12:46:11;;;;;;;2.15;0.40;;;;;;;;;;5013614;28;20092;-65
2021/12/01 12:48:43;;;;;;;0.73;0.45;;;;;;;;;;4998328;28;20958;-65
2021/12/01 12:51:16;;;;;;;1.42;0.40;;;;;;;;;;5004323;28;20129;-65
2021/12/01 12:54:04;;;;;;;0.30;0.28;;;;;;;;;;5006378;28;20370;-65
2021/12/01 12:56:34;;;;;;;0.32;0.30;;;;;;;;;;5016072;28;20078;-65
2021/12/01 12:59:18;;;;;;;0.43;0.40;;;;;;;;;;5011342;28;20536;-65
2021/12/01 13:01:47;;;;;;;0.23;0.23;;;;;;;;;;5015764;28;20050;-65
2021/12/01 13:04:35;;;;;;;2.10;0.20;;;;;;;;;;5016956;28;20100;-65
2021/12/01 13:07:19;;;;;;;1.17;0.38;;;;;;;;;;4998125;28;20528;-65
2021/12/01 13:10:03;;;;;;;0.88;0.50;;;;;;;;;;5010294;28;20136;-65
2021/12/01 13:12:32;;;;;;;5.45;0.50;;;;;;;;;;5007936;28;20046;-65
2021/12/01 13:15:02;;;;;;;0.73;0.43;;;;;;;;;;5004803;28;20054;-65
2021/12/01 13:17:31;;;;;;;0.73;0.40;;;;;;;;;;5009766;28;20494;-65
2021/12/01 13:20:00;;;;;;;0.57;0.30;;;;;;;;;;5010317;28;20057;-65
2021/12/01 13:22:29;;;;;;;0.40;0.40;;;;;;;;;;5022149;28;20046;-65
2021/12/01 13:25:09;;;;;;;0.70;0.30;;;;;;;;;;5022292;28;20111;-65
2021/12/01 13:27:47;;;;;;;0.88;0.30;;;;;;;;;;5004727;28;20057;-65
2021/12/01 13:30:17;;;;;;;0.52;0.45;;;;;;;;;;5011229;28;20057;-65
2021/12/01 13:32:46;;;;;;;0.30;0.30;;;;;;;;;;5016222;28;20489;-65
2021/12/01 13:35:14;;;;;;;0.20;0.20;;;;;;;;;;5030302;28;20065;-65
2021/12/01 13:37:43;;;;;;;0.68;0.30;;;;;;;;;;5009815;28;20076;-65
2021/12/01 13:40:14;;;;;;;0.28;0.25;;;;;;;;;;5005861;28;20045;-65
2021/12/01 13:42:43;;;;;;;1.10;0.30;;;;;;;;;;5007561;28;20440;-65
2021/12/01 13:45:12;;;;;;;0.20;0.20;;;;;;;;;;5006112;28;20569;-65
2021/12/01 13:47:43;;;;;;;0.43;0.30;;;;;;;;;;5004616;28;20049;-65
2021/12/01 13:50:14;;;;;;;0.65;0.30;;;;;;;;;;5010054;28;20085;-65
2021/12/01 13:52:44;;;;;;;1.48;0.22;;;;;;;;;;5008920;28;20492;-66
2021/12/01 13:55:17;;;;;;;0.63;0.35;;;;;;;;;;5009341;28;20046;-65
2021/12/01 13:57:46;;;;;;;0.50;0.25;;;;;;;;;;5008910;28;20622;-65
2021/12/01 14:00:16;;;;;;;0.28;0.28;;;;;;;;;;5008686;28;20062;-65
2021/12/01 14:02:44;;;;;;;0.32;0.30;;;;;;;;;;4998929;28;20189;-65
2021/12/01 14:05:13;;;;;;;1.52;0.50;;;;;;;;;;5009662;28;20095;-65
2021/12/01 14:07:43;;;;;;;0.90;0.20;;;;;;;;;;5007804;28;20051;-65
2021/12/01 14:10:15;;;;;;;3.00;0.63;;;;;;;;;;5009750;28;20057;-65
2021/12/01 14:12:45;;;;;;;0.50;0.30;;;;;;;;;;5007423;28;20046;-65
2021/12/01 14:15:15;;;;;;;0.43;0.35;;;;;;;;;;5008881;28;20049;-65
2021/12/01 14:18:01;;;;;;;0.32;0.28;;;;;;;;;;5007412;28;20050;-65
2021/12/01 14:20:30;;;;;;;0.95;0.30;;;;;;;;;;5011469;28;20063;-65
2021/12/01 14:23:00;;;;;;;0.52;0.28;;;;;;;;;;5029558;28;20068;-65
2021/12/01 14:25:31;;;;;;;0.40;0.30;;;;;;;;;;5011602;28;20050;-65
2021/12/01 14:28:04;;;;;;;0.35;0.30;;;;;;;;;;5011905;28;20081;-65
2021/12/01 14:30:33;;;;;;;0.63;0.38;;;;;;;;;;5001591;28;20084;-65
2021/12/01 14:33:02;;;;;;;0.57;0.38;;;;;;;;;;5009675;28;20137;-65
2021/12/01 14:35:30;;;;;;;3.20;0.32;;;;;;;;;;5008811;28;20715;-65
2021/12/01 14:37:59;;;;;;;1.20;0.40;;;;;;;;;;5009440;28;20478;-65
2021/12/01 14:40:29;;;;;;;1.58;0.30;;;;;;;;;;5009395;28;20052;-65
2021/12/01 14:43:00;;;;;;;1.65;0.32;;;;;;;;;;4997717;28;20050;-65
2021/12/01 14:45:29;;;;;;;0.80;0.40;;;;;;;;;;5009482;28;20185;-65
2021/12/01 14:48:04;;;;;;;0.85;0.35;;;;;;;;;;5008861;28;20042;-65
2021/12/01 14:50:32;;;;;;;;;;;;;;;;;;5009464;28;20100;-65
2021/12/01 14:53:03;;;;;;;0.40;0.40;;;;;;;;;;5008100;28;19936;-65
2021/12/01 14:55:34;;;;;;;0.82;0.40;;;;;;;;;;4994355;28;20046;-65
2021/12/01 14:58:09;;;;;;;0.95;0.40;;;;;;;;;;5003902;28;20426;-65
2021/12/01 15:00:39;;;;;;;1.75;0.52;;;;;;;;;;5024524;28;20057;-65
2021/12/01 15:03:08;;;;;;;2.67;0.40;;;;;;;;;;5018151;28;20053;-65
2021/12/01 15:05:47;;;;;;;0.47;0.38;;;;;;;;;;5021961;28;20046;-65
2021/12/01 15:08:23;;;;;;;0.80;0.60;;;;;;;;;;4999723;28;20502;-65